KBFF/BFF METAR and TAF weather

Enter ICAO airport designator
Station Type Date Time Source
KBFF METAR 2024/06/15 22:53 UTC NOAA

KBFF 152253Z AUTO 16011KT 10SM CLR 32/08 A2973 RMK AO2 LTG DSNT N AND SE AND NW RAB20E36 SLP018 P0000 T03170078


Station Type Date Time Source
KBFF Decoded METAR 2024/06/15 22:53 UTC NOAA

SCOTTSBLUFF HEILIG FIELD, NE, United States (KBFF) 41-52N 103-36W 1203M
Jun 15, 2024 - 06:53 PM EDT / 2024.06.15 2253 UTC
Wind: from the SSE (160 degrees) at 13 MPH (11 KT):0
Visibility: 10 mile(s):0
Sky conditions: clear
Weather: Lightning observed
Precipitation last hour: A trace
Temperature: 89.1 F (31.7 C)
Dew Point: 46.0 F (7.8 C)
Relative Humidity: 22%
Pressure (altimeter): 29.73 in. Hg (1006 hPa)
ob: KBFF 152253Z AUTO 16011KT 10SM CLR 32/08 A2973 RMK AO2 LTG DSNT N AND SE AND NW RAB20E36 SLP018 P0000 T03170078
cycle: 23

Station Type Date Time Source
KBFF TAF 2024/06/15 22:03 UTC NOAA